Time;durP1;ratioP1;P1;durP2;ratioP2;P2;SDS_P1;SDS_P2;PMS_P1;PMS_P2;Temp;Humidity;BMP_temperature;BMP_pressure;BME280_temperature;BME280_humidity;BME280_pressure;Samples;Min_cycle;Max_cycle;Signal;HPM_P1;HPM_P2
2024/03/12 00:01:07;;;;;;;1.60;1.50;;;;;;;5.69;74.44;95116.53;5066973;28;20202;-77
2024/03/12 00:03:36;;;;;;;3.50;1.53;;;;;;;5.75;74.58;95118.59;5066608;28;20199;-77
2024/03/12 00:06:01;;;;;;;2.87;1.60;;;;;;;5.71;74.67;95116.41;5078201;28;20204;-77
2024/03/12 00:08:27;;;;;;;1.73;1.43;;;;;;;5.79;75.05;95114.81;5075487;28;20191;-77
2024/03/12 00:10:53;;;;;;;1.97;1.50;;;;;;;5.82;75.41;95122.28;5058957;28;20195;-77
2024/03/12 00:13:19;;;;;;;2.17;1.40;;;;;;;5.97;74.27;95120.22;5073296;28;20192;-77
2024/03/12 00:15:44;;;;;;;2.23;1.37;;;;;;;6.02;74.35;95122.41;5072733;28;20218;-77
2024/03/12 00:18:10;;;;;;;1.83;1.50;;;;;;;6.03;74.08;95113.72;5076340;28;20192;-77
2024/03/12 00:20:39;;;;;;;2.13;1.57;;;;;;;5.96;73.85;95119.41;5059663;28;20256;-77
2024/03/12 00:23:06;;;;;;;2.27;1.63;;;;;;;6.00;74.26;95119.13;5058060;28;20184;-77
2024/03/12 00:25:33;;;;;;;1.43;1.33;;;;;;;6.01;74.31;95116.44;5066424;28;20220;-77
2024/03/12 00:27:58;;;;;;;2.57;1.60;;;;;;;5.92;74.08;95118.03;5075615;28;20180;-77
2024/03/12 00:30:28;;;;;;;1.80;1.47;;;;;;;5.91;74.83;95121.53;5057585;28;20218;-77
2024/03/12 00:32:57;;;;;;;1.60;1.50;;;;;;;5.88;74.53;95121.78;5075417;28;20234;-77
2024/03/12 00:35:28;;;;;;;1.93;1.70;;;;;;;5.81;74.73;95118.06;5072905;28;20249;-76
2024/03/12 00:37:56;;;;;;;1.80;1.50;;;;;;;5.79;74.94;95122.53;5094181;28;20216;-76
2024/03/12 00:40:26;;;;;;;2.80;1.63;;;;;;;5.73;75.18;95120.47;5060059;28;20277;-77
2024/03/12 00:42:51;;;;;;;2.13;1.70;;;;;;;5.71;75.27;95118.97;5054778;28;20253;-77
2024/03/12 00:45:25;;;;;;;2.47;1.43;;;;;;;5.73;75.70;95128.19;5093651;28;20701;-75
2024/03/12 00:47:52;;;;;;;2.30;1.77;;;;;;;5.71;76.46;95130.09;5058410;28;20192;-77
2024/03/12 00:50:17;;;;;;;3.00;1.90;;;;;;;5.72;75.95;95136.06;5093860;28;20212;-76
2024/03/12 00:52:43;;;;;;;3.70;2.30;;;;;;;5.66;77.02;95134.84;5074534;28;20598;-76
2024/03/12 00:55:09;;;;;;;1.97;1.80;;;;;;;5.68;76.63;95127.78;5073989;28;20180;-76
2024/03/12 00:57:38;;;;;;;2.70;1.50;;;;;;;5.79;76.34;95126.88;5057369;28;20218;-77
2024/03/12 01:00:16;;;;;;;1.90;1.70;;;;;;;5.74;76.56;95119.53;5073128;28;20184;-77
2024/03/12 01:02:49;;;;;;;4.20;1.90;;;;;;;5.62;77.92;95123.94;5061742;28;20195;-77
2024/03/12 01:05:18;;;;;;;3.13;1.90;;;;;;;5.78;77.17;95125.25;5066548;28;20216;-77
2024/03/12 01:07:45;;;;;;;1.83;1.73;;;;;;;5.77;76.93;95119.28;5082141;28;20191;-77
2024/03/12 01:10:10;;;;;;;2.10;1.70;;;;;;;5.69;77.39;95121.69;5098044;28;20181;-77
2024/03/12 01:12:37;;;;;;;2.20;2.00;;;;;;;5.72;77.34;95130.91;5079329;28;20214;-77
2024/03/12 01:15:07;;;;;;;1.97;1.77;;;;;;;5.69;77.72;95137.16;5077645;28;20173;-77
2024/03/12 01:17:33;;;;;;;2.87;1.40;;;;;;;5.75;77.29;95138.41;5064046;28;20240;-77
2024/03/12 01:19:58;;;;;;;2.50;1.70;;;;;;;5.68;77.44;95130.38;5064608;28;20251;-77
2024/03/12 01:22:24;;;;;;;1.83;1.67;;;;;;;5.65;77.65;95136.59;5079825;28;20199;-77
2024/03/12 01:24:51;;;;;;;2.17;1.97;;;;;;;5.67;77.10;95124.41;5062644;28;20212;-77
2024/03/12 01:27:17;;;;;;;2.43;1.80;;;;;;;5.57;77.85;95133.84;5095076;28;20203;-77
2024/03/12 01:29:43;;;;;;;2.00;1.80;;;;;;;5.50;77.69;95124.97;5070837;28;20188;-77
2024/03/12 01:32:09;;;;;;;2.17;1.70;;;;;;;5.55;77.72;95127.97;5055355;28;20195;-77
2024/03/12 01:34:34;;;;;;;1.90;1.63;;;;;;;5.52;76.89;95130.81;5061457;28;20189;-77
2024/03/12 01:37:00;;;;;;;1.77;1.67;;;;;;;5.54;77.52;95122.97;5063488;28;20298;-77
2024/03/12 01:39:26;;;;;;;2.60;1.87;;;;;;;5.44;76.98;95137.53;5080990;28;20290;-77
2024/03/12 01:41:55;;;;;;;4.00;1.87;;;;;;;5.34;78.16;95130.56;5077193;28;20575;-77
2024/03/12 01:44:21;;;;;;;2.83;1.90;;;;;;;5.31;77.11;95135.16;5070764;28;20211;-76
2024/03/12 01:46:47;;;;;;;3.50;1.47;;;;;;;5.24;77.69;95131.47;5074196;28;20688;-77
2024/03/12 01:49:13;;;;;;;1.67;1.50;;;;;;;5.14;78.37;95136.53;5069615;28;20181;-77
2024/03/12 01:51:39;;;;;;;1.83;1.67;;;;;;;5.16;78.23;95134.66;5056170;28;20199;-79
2024/03/12 01:54:04;;;;;;;3.13;1.93;;;;;;;5.05;77.60;95127.81;5071873;28;20184;-77
2024/03/12 01:56:31;;;;;;;2.77;1.70;;;;;;;5.07;78.19;95140.53;5095345;28;20242;-76
2024/03/12 01:58:59;;;;;;;1.87;1.60;;;;;;;5.06;78.23;95136.34;5079325;28;20194;-77
2024/03/12 02:01:25;;;;;;;2.63;1.80;;;;;;;4.92;78.11;95132.28;5061224;28;20640;-77
2024/03/12 02:03:51;;;;;;;2.67;1.73;;;;;;;4.92;78.64;95134.06;5080064;28;20207;-76
2024/03/12 02:06:23;;;;;;;2.13;1.73;;;;;;;4.89;79.75;95136.88;5074200;28;20207;-77
2024/03/12 02:08:49;;;;;;;1.73;1.63;;;;;;;4.97;79.46;95145.63;5078797;28;20186;-77
2024/03/12 02:11:15;;;;;;;3.57;1.50;;;;;;;4.99;78.62;95148.06;5080936;28;20194;-77
2024/03/12 02:13:41;;;;;;;1.97;1.50;;;;;;;4.94;79.33;95148.41;5077769;28;20177;-78
2024/03/12 02:16:07;;;;;;;2.37;1.47;;;;;;;5.07;78.47;95146.50;5085396;28;20294;-77
2024/03/12 02:18:32;;;;;;;3.53;1.70;;;;;;;5.09;78.46;95139.47;5068330;28;20184;-76
2024/03/12 02:20:58;;;;;;;1.50;1.40;;;;;;;5.11;78.49;95147.06;5067750;28;20219;-77
2024/03/12 02:23:42;;;;;;;2.47;1.40;;;;;;;5.18;78.12;95150.78;5081245;28;20198;-77
2024/03/12 02:26:09;;;;;;;2.57;1.70;;;;;;;5.11;78.70;95150.44;5062379;28;20289;-77
2024/03/12 02:28:37;;;;;;;1.63;1.43;;;;;;;5.23;78.23;95156.38;5083483;28;20188;-76
2024/03/12 02:31:07;;;;;;;1.77;1.30;;;;;;;5.29;78.38;95149.91;5082951;28;20192;-77
2024/03/12 02:33:33;;;;;;;2.80;1.50;;;;;;;5.39;78.18;95155.97;5080056;28;20200;-76
2024/03/12 02:35:58;;;;;;;4.50;1.40;;;;;;;5.48;78.14;95162.09;5082276;28;20207;-77
2024/03/12 02:38:24;;;;;;;2.23;1.37;;;;;;;5.58;78.10;95157.84;5083748;28;20194;-77
2024/03/12 02:40:49;;;;;;;3.63;1.80;;;;;;;5.69;77.52;95170.63;5081393;28;20187;-77
2024/03/12 02:43:15;;;;;;;1.63;1.30;;;;;;;5.75;77.13;95167.56;5082514;28;20661;-77
2024/03/12 02:45:42;;;;;;;3.03;1.53;;;;;;;5.75;77.31;95164.16;5084618;28;20693;-77
2024/03/12 02:48:09;;;;;;;2.13;1.80;;;;;;;5.77;77.18;95162.28;5102511;28;20208;-77
2024/03/12 02:50:35;;;;;;;2.17;1.60;;;;;;;5.83;77.37;95170.31;5082316;28;20196;-77
2024/03/12 02:53:00;;;;;;;1.97;1.50;;;;;;;5.84;76.89;95165.97;5066833;28;20184;-77
2024/03/12 02:55:27;;;;;;;3.93;1.50;;;;;;;5.87;77.15;95171.69;5068129;28;20211;-77
2024/03/12 02:57:53;;;;;;;1.73;1.50;;;;;;;5.89;77.07;95172.38;5083152;28;20211;-77
2024/03/12 03:00:18;;;;;;;2.37;1.53;;;;;;;5.93;76.75;95175.56;5082855;28;20192;-77
2024/03/12 03:02:43;;;;;;;3.37;1.60;;;;;;;5.99;76.82;95169.03;5083369;28;20270;-76
2024/03/12 03:05:09;;;;;;;1.90;1.57;;;;;;;6.02;77.05;95171.38;5102470;28;20236;-77
2024/03/12 03:07:36;;;;;;;2.70;1.73;;;;;;;5.94;77.24;95167.69;5081182;28;20237;-76
2024/03/12 03:10:03;;;;;;;2.47;1.60;;;;;;;5.92;76.99;95164.44;5067365;28;20188;-77
2024/03/12 03:12:28;;;;;;;5.30;1.80;;;;;;;6.06;76.53;95170.97;5082007;28;20176;-77
2024/03/12 03:14:53;;;;;;;4.13;1.50;;;;;;;5.98;76.82;95165.66;5080529;28;20176;-77
2024/03/12 03:17:20;;;;;;;3.00;1.67;;;;;;;6.02;76.95;95168.81;5083593;28;20287;-77
2024/03/12 03:19:46;;;;;;;1.93;1.83;;;;;;;6.08;76.55;95173.44;5100993;28;20183;-76
2024/03/12 03:22:11;;;;;;;3.13;1.67;;;;;;;6.11;76.61;95179.16;5049440;28;20203;-76
2024/03/12 03:24:37;;;;;;;2.00;1.30;;;;;;;6.06;76.29;95180.47;5097206;28;20287;-77
2024/03/12 03:27:07;;;;;;;2.00;1.50;;;;;;;6.13;76.42;95177.25;5083593;28;20200;-78
2024/03/12 03:29:33;;;;;;;3.87;1.50;;;;;;;5.92;76.91;95182.47;5083316;28;20184;-77
2024/03/12 03:31:59;;;;;;;3.07;1.60;;;;;;;6.08;76.66;95187.13;5083143;28;20181;-77
2024/03/12 03:34:28;;;;;;;3.33;1.80;;;;;;;6.12;76.50;95190.28;5063792;28;20271;-77
2024/03/12 03:36:57;;;;;;;2.77;1.60;;;;;;;6.11;76.58;95188.66;5083963;28;20593;-77
2024/03/12 03:39:26;;;;;;;3.10;1.60;;;;;;;6.09;76.77;95191.34;5064914;28;20184;-77
2024/03/12 03:41:55;;;;;;;1.83;1.57;;;;;;;6.13;76.40;95194.50;5080976;28;20184;-77
2024/03/12 03:44:23;;;;;;;1.60;1.50;;;;;;;6.09;76.65;95196.50;5097556;28;20215;-77
2024/03/12 03:46:48;;;;;;;3.77;1.67;;;;;;;6.12;76.56;95195.44;5100919;28;20228;-77
2024/03/12 03:49:14;;;;;;;3.17;1.77;;;;;;;6.11;76.58;95199.78;5081523;28;20184;-77
2024/03/12 03:51:40;;;;;;;2.33;1.70;;;;;;;6.22;76.39;95204.03;5081804;28;20188;-78
2024/03/12 03:54:07;;;;;;;3.73;2.10;;;;;;;6.15;76.57;95211.47;5066261;28;20237;-77
2024/03/12 03:56:33;;;;;;;3.23;1.50;;;;;;;6.23;75.84;95208.25;5081355;28;20200;-77
2024/03/12 03:59:00;;;;;;;1.77;1.67;;;;;;;6.19;76.41;95214.63;5066605;28;20195;-77
2024/03/12 04:01:28;;;;;;;2.13;1.50;;;;;;;5.98;77.73;95214.63;5083834;28;20185;-76
2024/03/12 04:03:53;;;;;;;1.50;1.40;;;;;;;6.10;77.07;95217.97;5083457;28;20326;-77
2024/03/12 04:06:22;;;;;;;2.10;1.67;;;;;;;6.10;77.61;95225.69;5083698;28;20248;-77
2024/03/12 04:08:53;;;;;;;2.30;2.03;;;;;;;6.21;77.67;95228.19;5084450;28;20188;-77
2024/03/12 04:11:21;;;;;;;2.27;1.90;;;;;;;6.23;77.79;95231.44;5066525;28;20274;-77
2024/03/12 04:13:47;;;;;;;2.10;1.90;;;;;;;6.28;77.85;95237.06;5079935;28;20185;-77
2024/03/12 04:16:12;;;;;;;2.90;1.80;;;;;;;6.26;78.27;95233.75;5063951;28;20220;-78
2024/03/12 04:18:38;;;;;;;2.40;2.00;;;;;;;6.30;78.45;95235.16;5065976;28;20196;-78
2024/03/12 04:21:04;;;;;;;5.20;2.37;;;;;;;6.26;79.74;95244.06;5084480;28;20210;-77
2024/03/12 04:23:29;;;;;;;3.03;2.03;;;;;;;6.37;79.67;95249.16;5066664;28;20184;-77
2024/03/12 04:25:55;;;;;;;5.07;2.90;;;;;;;6.32;80.54;95243.56;5067957;28;20268;-77
2024/03/12 04:28:20;;;;;;;3.53;2.67;;;;;;;6.22;81.54;95250.44;5067762;28;20654;-77
2024/03/12 04:30:48;;;;;;;5.13;3.63;;;;;;;6.37;81.91;95245.78;5067168;28;20746;-77
2024/03/12 04:33:13;;;;;;;4.83;3.03;;;;;;;6.43;81.61;95253.78;5082465;28;20552;-77
2024/03/12 04:35:39;;;;;;;4.17;3.60;;;;;;;6.48;81.11;95259.38;5082145;28;20200;-78
2024/03/12 04:38:04;;;;;;;3.83;3.37;;;;;;;6.40;82.01;95260.97;5083642;28;20183;-77
2024/03/12 04:40:29;;;;;;;5.57;3.13;;;;;;;6.61;81.14;95266.91;5067115;28;20184;-77
2024/03/12 04:42:55;;;;;;;4.83;3.57;;;;;;;6.55;82.19;95258.88;5082790;28;20267;-77
2024/03/12 04:45:24;;;;;;;5.13;3.93;;;;;;;6.53;82.02;95270.13;5065575;28;20266;-77
2024/03/12 04:47:50;;;;;;;3.33;2.90;;;;;;;6.69;81.65;95266.25;5081225;28;20172;-77
2024/03/12 04:50:19;;;;;;;3.90;3.30;;;;;;;6.64;82.25;95268.41;5065440;28;20188;-77
2024/03/12 04:52:44;;;;;;;4.73;3.40;;;;;;;6.66;81.35;95275.06;5078671;28;20213;-77
2024/03/12 04:55:09;;;;;;;3.90;2.80;;;;;;;6.66;81.10;95266.53;5083062;28;20180;-77
2024/03/12 04:57:35;;;;;;;6.60;4.07;;;;;;;6.69;81.53;95277.38;5100245;28;20194;-76
2024/03/12 05:00:01;;;;;;;4.23;3.30;;;;;;;6.72;81.74;95269.41;5081542;28;20211;-77
2024/03/12 05:02:26;;;;;;;5.13;3.57;;;;;;;6.81;80.65;95273.78;5083978;28;20204;-77
2024/03/12 05:04:52;;;;;;;4.60;3.70;;;;;;;6.75;81.04;95266.56;5079726;28;20226;-76
2024/03/12 05:07:17;;;;;;;4.40;3.70;;;;;;;6.84;80.62;95280.44;5063310;28;20212;-77
2024/03/12 05:09:42;;;;;;;5.60;3.13;;;;;;;6.85;80.82;95282.06;5066314;28;20662;-77
2024/03/12 05:12:08;;;;;;;4.67;4.10;;;;;;;6.88;80.65;95280.97;5083303;28;20184;-77
2024/03/12 05:14:33;;;;;;;5.63;3.80;;;;;;;6.80;80.85;95284.19;5078445;28;20178;-77
2024/03/12 05:16:59;;;;;;;6.50;3.90;;;;;;;6.86;80.99;95294.00;5081452;28;20200;-78
2024/03/12 05:19:25;;;;;;;4.47;3.50;;;;;;;6.86;80.94;95301.75;5064346;28;20225;-77
2024/03/12 05:21:50;;;;;;;4.10;3.50;;;;;;;6.90;80.83;95308.31;5082776;28;20176;-77
2024/03/12 05:24:17;;;;;;;5.30;3.20;;;;;;;6.41;82.44;95304.69;5065718;28;20579;-76
2024/03/12 05:26:44;;;;;;;3.90;3.50;;;;;;;6.80;80.91;95310.00;5066081;28;20204;-77
2024/03/12 05:29:10;;;;;;;3.90;3.50;;;;;;;6.70;81.77;95309.97;5081891;28;20247;-77
2024/03/12 05:31:39;;;;;;;4.87;3.77;;;;;;;6.75;81.63;95318.16;5077980;28;20188;-77
2024/03/12 05:34:27;;;;;;;5.37;3.30;;;;;;;6.58;82.09;95312.78;5083580;28;20183;-78
2024/03/12 05:37:02;;;;;;;7.57;4.17;;;;;;;6.71;81.91;95314.19;5082611;28;20223;-78
2024/03/12 05:39:47;;;;;;;5.30;3.83;;;;;;;6.75;81.92;95317.34;5059223;28;20194;-77
2024/03/12 05:50:24;;;;;;;6.07;3.93;;;;;;;6.82;82.12;95332.19;5084609;28;20186;-77
2024/03/12 05:52:49;;;;;;;4.53;3.90;;;;;;;6.68;83.09;95331.72;5081032;28;20207;-76
2024/03/12 05:55:15;;;;;;;4.13;3.30;;;;;;;6.69;83.24;95335.91;5078115;28;20662;-78
2024/03/12 05:57:42;;;;;;;5.50;3.57;;;;;;;6.70;83.39;95338.38;5080073;28;20200;-76
2024/03/12 06:00:08;;;;;;;5.77;3.60;;;;;;;6.68;83.81;95339.44;5062297;28;20218;-77
2024/03/12 06:02:34;;;;;;;4.33;3.57;;;;;;;6.69;83.54;95336.72;5066057;28;20188;-77
2024/03/12 06:04:59;;;;;;;3.90;3.47;;;;;;;6.92;82.18;95344.31;5066116;28;20204;-77
2024/03/12 06:07:24;;;;;;;5.33;3.40;;;;;;;6.89;82.59;95347.97;5081224;28;20639;-77
2024/03/12 06:09:51;;;;;;;4.27;3.37;;;;;;;6.85;82.87;95344.00;5082520;28;20185;-77
2024/03/12 06:12:18;;;;;;;4.17;3.20;;;;;;;6.87;82.65;95342.09;5063428;28;20181;-77
2024/03/12 06:14:43;;;;;;;3.60;3.23;;;;;;;6.98;82.31;95343.78;5080437;28;20172;-78
2024/03/12 06:17:08;;;;;;;3.93;3.53;;;;;;;6.97;81.98;95353.28;5081665;28;20196;-77
2024/03/12 06:19:34;;;;;;;4.20;3.33;;;;;;;6.98;82.00;95349.78;5081428;28;20199;-77
2024/03/12 06:21:59;;;;;;;4.23;3.07;;;;;;;6.95;82.26;95355.19;5064936;28;20184;-77
2024/03/12 06:24:25;;;;;;;4.50;3.40;;;;;;;7.02;81.79;95352.91;5076926;28;20226;-77
2024/03/12 06:26:51;;;;;;;4.67;3.00;;;;;;;6.92;82.15;95346.91;5065231;28;20232;-77
2024/03/12 06:29:16;;;;;;;3.00;2.37;;;;;;;7.04;81.78;95353.59;5058208;28;20177;-76
2024/03/12 06:31:42;;;;;;;3.10;2.80;;;;;;;7.08;80.57;95358.38;5058143;28;20188;-77
2024/03/12 06:34:07;;;;;;;3.17;2.83;;;;;;;7.14;81.03;95359.59;5057518;28;20215;-77
2024/03/12 06:36:33;;;;;;;2.53;2.33;;;;;;;7.11;81.30;95367.63;5072630;28;20231;-77
2024/03/12 06:38:58;;;;;;;5.27;2.37;;;;;;;7.06;81.07;95367.19;5071372;28;20684;-77
2024/03/12 06:41:24;;;;;;;3.00;2.40;;;;;;;7.08;81.01;95368.69;5060419;28;20180;-77
2024/03/12 06:43:49;;;;;;;2.77;1.97;;;;;;;6.78;81.56;95371.28;5060622;28;20208;-77
2024/03/12 06:46:19;;;;;;;2.27;1.90;;;;;;;6.74;82.00;95369.91;5076168;28;20204;-77
2024/03/12 06:48:46;;;;;;;2.23;2.03;;;;;;;6.97;81.11;95376.53;5077747;28;20272;-77
2024/03/12 06:51:11;;;;;;;1.60;1.50;;;;;;;7.00;80.66;95381.44;5075003;28;20176;-77
2024/03/12 06:53:36;;;;;;;2.60;1.53;;;;;;;7.04;80.84;95382.81;5063267;28;20225;-75
2024/03/12 06:56:05;;;;;;;2.67;1.73;;;;;;;6.95;80.97;95388.75;5078867;28;20204;-77
2024/03/12 06:58:31;;;;;;;1.50;1.40;;;;;;;7.04;80.73;95384.56;5098889;28;20267;-77
2024/03/12 07:00:57;;;;;;;2.23;1.80;;;;;;;7.03;80.54;95386.34;5079880;28;20615;-76
2024/03/12 07:03:24;;;;;;;1.83;1.60;;;;;;;6.73;82.19;95389.75;5098796;28;20196;-76
2024/03/12 07:05:53;;;;;;;1.70;1.60;;;;;;;6.91;81.46;95387.38;5078743;28;20205;-77
2024/03/12 07:08:21;;;;;;;2.63;1.50;;;;;;;6.66;82.19;95387.78;5080081;28;20199;-76
2024/03/12 07:10:48;;;;;;;1.90;1.40;;;;;;;6.87;81.82;95387.75;5063623;28;20375;-77
2024/03/12 07:13:13;;;;;;;2.17;1.57;;;;;;;7.13;80.77;95388.13;5078177;28;20188;-76
2024/03/12 07:15:39;;;;;;;1.87;1.67;;;;;;;7.06;80.60;95396.41;5058168;28;20205;-78
2024/03/12 07:18:08;;;;;;;2.00;1.30;;;;;;;6.95;80.99;95398.25;5054224;28;20195;-77
2024/03/12 07:20:36;;;;;;;1.73;1.40;;;;;;;7.03;80.99;95399.25;5055956;28;20192;-77
2024/03/12 07:23:03;;;;;;;2.33;1.50;;;;;;;7.19;80.10;95405.69;5055924;28;20219;-77
2024/03/12 07:25:30;;;;;;;2.30;2.10;;;;;;;7.27;79.88;95405.88;5078456;28;20213;-77
2024/03/12 07:27:58;;;;;;;1.57;1.47;;;;;;;7.10;80.35;95405.53;5072855;28;20184;-76
2024/03/12 07:30:24;;;;;;;2.13;1.77;;;;;;;7.03;80.61;95409.56;5074196;28;20211;-77
2024/03/12 07:32:51;;;;;;;2.53;2.10;;;;;;;7.26;79.80;95417.16;5058355;28;20176;-77
2024/03/12 07:35:17;;;;;;;2.63;2.43;;;;;;;7.20;80.10;95412.50;5058519;28;20200;-77
2024/03/12 07:37:43;;;;;;;1.80;1.70;;;;;;;7.33;80.05;95413.06;5063864;28;20230;-77
2024/03/12 07:40:09;;;;;;;2.40;2.03;;;;;;;7.54;79.20;95425.94;5074107;28;20181;-77
2024/03/12 07:42:36;;;;;;;2.47;2.00;;;;;;;7.50;78.92;95424.56;5059031;28;20199;-77
2024/03/12 07:45:01;;;;;;;2.10;1.50;;;;;;;7.48;79.16;95419.53;5058159;28;20242;-78
2024/03/12 07:47:26;;;;;;;2.67;1.70;;;;;;;7.51;79.11;95424.44;5072612;28;20177;-75
2024/03/12 07:49:53;;;;;;;1.87;1.73;;;;;;;7.54;79.33;95429.34;5087407;28;20343;-74
2024/03/12 07:52:19;;;;;;;1.83;1.60;;;;;;;7.50;79.42;95425.38;5064683;28;20173;-76
2024/03/12 07:54:45;;;;;;;2.40;2.00;;;;;;;7.47;79.18;95425.66;5052406;28;20183;-76
2024/03/12 07:57:11;;;;;;;3.17;2.00;;;;;;;7.29;80.58;95422.06;5069758;28;20196;-76
2024/03/12 07:59:36;;;;;;;4.00;2.10;;;;;;;7.27;80.66;95427.34;5067703;28;20177;-76
2024/03/12 08:02:11;;;;;;;2.13;1.93;;;;;;;7.00;81.61;95435.66;5055079;28;20630;-76
2024/03/12 08:04:43;;;;;;;2.93;2.20;;;;;;;7.18;81.10;95435.88;5071412;28;20192;-76
2024/03/12 08:07:10;;;;;;;4.70;2.70;;;;;;;7.38;80.53;95442.75;5053658;28;20204;-77
2024/03/12 08:09:35;;;;;;;4.13;2.60;;;;;;;7.31;80.73;95444.22;5055526;28;20670;-76
2024/03/12 08:12:01;;;;;;;3.43;2.40;;;;;;;7.37;81.01;95438.53;5054162;28;20221;-76
2024/03/12 08:14:27;;;;;;;3.43;2.10;;;;;;;7.17;82.18;95438.59;5068615;28;20555;-76
2024/03/12 08:16:52;;;;;;;3.20;2.17;;;;;;;7.07;82.88;95447.13;5076907;28;20203;-76
2024/03/12 08:19:18;;;;;;;3.50;2.10;;;;;;;7.16;83.04;95440.38;5070884;28;20187;-76
2024/03/12 08:21:43;;;;;;;3.30;2.57;;;;;;;7.50;81.05;95451.22;5070426;28;20180;-77
2024/03/12 08:24:10;;;;;;;3.87;3.00;;;;;;;7.35;82.17;95450.78;5069895;28;20661;-77
2024/03/12 08:26:37;;;;;;;6.83;4.00;;;;;;;7.37;82.44;95451.44;5070751;28;20204;-77
2024/03/12 08:29:04;;;;;;;9.90;5.03;;;;;;;7.21;82.93;95452.88;5053227;28;20200;-78
2024/03/12 08:31:29;;;;;;;7.80;4.67;;;;;;;7.37;83.09;95453.22;5064194;28;20173;-77
2024/03/12 08:33:55;;;;;;;10.37;6.27;;;;;;;7.10;84.28;95452.00;5069059;28;20684;-76
2024/03/12 08:36:23;;;;;;;10.77;6.93;;;;;;;7.54;82.68;95446.63;5068555;28;20580;-77
2024/03/12 08:38:49;;;;;;;12.13;6.73;;;;;;;7.68;82.26;95453.97;5066555;28;20176;-77
2024/03/12 08:41:14;;;;;;;10.30;6.50;;;;;;;7.62;82.16;95457.94;5054692;28;20177;-76
2024/03/12 08:43:40;;;;;;;11.37;6.80;;;;;;;7.59;82.35;95455.59;5065791;28;20248;-77
2024/03/12 08:46:06;;;;;;;11.83;6.87;;;;;;;7.80;82.28;95465.88;5071039;28;20231;-77
2024/03/12 08:48:33;;;;;;;10.43;6.10;;;;;;;7.68;82.51;95456.56;5069992;28;20177;-77
2024/03/12 08:50:58;;;;;;;11.40;6.23;;;;;;;7.80;82.27;95459.88;5070850;28;20183;-77
2024/03/12 08:53:23;;;;;;;12.27;5.90;;;;;;;8.00;81.77;95466.72;5070137;28;20702;-77
2024/03/12 08:55:49;;;;;;;9.37;5.87;;;;;;;8.29;80.62;95466.75;5088943;28;20201;-77
2024/03/12 08:58:14;;;;;;;9.10;5.73;;;;;;;7.93;81.65;95463.03;5053522;28;20188;-77
2024/03/12 09:00:41;;;;;;;8.77;5.30;;;;;;;8.26;80.06;95476.56;5090477;28;20173;-77
2024/03/12 09:03:06;;;;;;;9.33;5.60;;;;;;;8.23;80.04;95472.47;5070518;28;20177;-76
2024/03/12 09:05:34;;;;;;;9.17;6.17;;;;;;;8.20;80.32;95478.72;5078558;28;20246;-77
2024/03/12 09:07:59;;;;;;;9.70;6.40;;;;;;;8.34;79.74;95479.28;5076744;28;20200;-77
2024/03/12 09:10:24;;;;;;;9.37;6.03;;;;;;;8.58;79.02;95486.69;5076901;28;20185;-77
2024/03/12 09:12:50;;;;;;;8.10;5.27;;;;;;;8.72;78.81;95489.66;5074249;28;20188;-77
2024/03/12 09:15:16;;;;;;;9.40;5.30;;;;;;;8.70;78.28;95486.41;5078323;28;20188;-77
2024/03/12 09:17:42;;;;;;;7.63;5.00;;;;;;;8.54;78.59;95490.47;5064370;28;20183;-76
2024/03/12 09:20:12;;;;;;;8.60;4.90;;;;;;;8.35;78.81;95492.13;5077034;28;20176;-77
2024/03/12 09:22:37;;;;;;;10.47;5.27;;;;;;;8.57;77.81;95490.19;5072800;28;20208;-77
2024/03/12 09:25:05;;;;;;;5.83;4.60;;;;;;;8.68;77.68;95501.25;5054486;28;20220;-76
2024/03/12 09:27:30;;;;;;;8.23;5.93;;;;;;;8.65;77.60;95491.16;5071786;28;20173;-77
2024/03/12 09:29:56;;;;;;;7.77;5.57;;;;;;;8.63;77.73;95510.38;5078379;28;20202;-77
2024/03/12 09:32:22;;;;;;;10.17;6.17;;;;;;;8.44;78.72;95501.66;5057188;28;20181;-77
2024/03/12 09:34:47;;;;;;;9.87;5.13;;;;;;;8.58;77.64;95505.63;5078535;28;20669;-76
2024/03/12 09:37:15;;;;;;;10.80;5.43;;;;;;;8.66;77.12;95497.19;5076833;28;20200;-77
2024/03/12 09:39:41;;;;;;;6.73;4.47;;;;;;;8.64;76.47;95507.66;5078136;28;20274;-77
2024/03/12 09:42:07;;;;;;;6.80;4.40;;;;;;;8.78;75.73;95512.41;5074816;28;20302;-77
2024/03/12 09:44:36;;;;;;;7.43;4.40;;;;;;;8.66;76.19;95505.75;5060268;28;20245;-77
2024/03/12 09:47:03;;;;;;;6.00;4.57;;;;;;;8.88;74.96;95504.63;5076095;28;20693;-76
2024/03/12 09:49:31;;;;;;;4.40;3.90;;;;;;;8.72;75.30;95505.19;5071525;28;20700;-77
2024/03/12 09:51:57;;;;;;;5.17;3.80;;;;;;;9.08;74.92;95506.22;5072983;28;20185;-76
2024/03/12 09:54:23;;;;;;;7.07;3.63;;;;;;;9.32;74.79;95513.56;5050394;28;20181;-76
2024/03/12 09:56:49;;;;;;;3.67;2.63;;;;;;;8.89;75.06;95508.03;5067866;28;20224;-77
2024/03/12 09:59:15;;;;;;;3.80;2.63;;;;;;;8.96;75.28;95511.72;5064441;28;20197;-77
2024/03/12 10:01:42;;;;;;;3.47;2.30;;;;;;;9.28;73.84;95525.16;5070305;28;20191;-77
2024/03/12 10:04:08;;;;;;;4.30;3.50;;;;;;;9.59;72.53;95524.94;5072090;28;20345;-76
2024/03/12 10:06:35;;;;;;;4.07;2.67;;;;;;;9.55;72.44;95527.00;5068556;28;20218;-77
2024/03/12 10:09:01;;;;;;;2.80;2.50;;;;;;;9.85;71.47;95528.50;5074376;28;20741;-77
2024/03/12 10:11:26;;;;;;;3.00;2.00;;;;;;;9.88;70.98;95523.03;5072164;28;20192;-77
2024/03/12 10:13:56;;;;;;;4.07;2.30;;;;;;;9.83;70.94;95532.22;5073466;28;20209;-77
2024/03/12 10:16:24;;;;;;;11.57;7.43;;;;;;;9.21;71.23;95536.22;5051205;28;20204;-77
2024/03/12 10:19:05;;;;;;;5.67;3.87;;;;;;;8.91;73.06;95542.38;5069772;28;20180;-77
2024/03/12 10:21:31;;;;;;;5.30;3.67;;;;;;;8.77;74.06;95539.28;5072303;28;20181;-77
2024/03/12 10:24:10;;;;;;;5.17;4.33;;;;;;;8.60;74.89;95550.31;5088986;28;20217;-77
2024/03/12 10:26:35;;;;;;;5.33;4.40;;;;;;;8.46;76.17;95545.50;5064824;28;20249;-77
2024/03/12 10:29:21;;;;;;;5.83;4.57;;;;;;;8.72;76.20;95546.63;5071755;28;20274;-76
2024/03/12 10:31:48;;;;;;;5.57;4.27;;;;;;;8.86;76.57;95544.59;5056330;28;20688;-76
2024/03/12 10:34:23;;;;;;;6.47;4.47;;;;;;;8.94;77.02;95542.94;5074742;28;20185;-77
2024/03/12 10:36:51;;;;;;;4.20;3.37;;;;;;;9.22;76.54;95550.81;5093463;28;20211;-76
2024/03/12 10:39:28;;;;;;;5.73;3.93;;;;;;;9.21;76.95;95547.41;5060178;28;20550;-77
2024/03/12 10:42:00;;;;;;;5.33;3.70;;;;;;;9.45;76.49;95548.69;5060042;28;20184;-77
2024/03/12 10:44:27;;;;;;;4.83;3.73;;;;;;;9.37;76.89;95552.03;5075559;28;20264;-77
2024/03/12 10:46:53;;;;;;;6.20;3.93;;;;;;;9.38;77.40;95558.03;5068658;28;20284;-75
2024/03/12 10:49:20;;;;;;;3.93;3.17;;;;;;;9.29;77.37;95555.31;5077263;28;20230;-77
2024/03/12 10:51:45;;;;;;;9.17;7.33;;;;;;;9.07;78.40;95560.78;5062937;28;20195;-78
2024/03/12 10:54:16;;;;;;;3.70;2.60;;;;;;;8.83;79.33;95563.78;5093710;28;20728;-77
2024/03/12 10:56:51;;;;;;;3.10;2.80;;;;;;;8.74;79.97;95565.41;5072112;28;20974;-77
2024/03/12 10:59:16;;;;;;;6.30;3.50;;;;;;;8.03;81.31;95563.91;5074589;28;20180;-77
2024/03/12 11:01:45;;;;;;;11.20;5.50;;;;;;;7.90;81.40;95570.13;5060561;28;20180;-78
2024/03/12 11:04:11;;;;;;;3.77;2.80;;;;;;;8.44;80.37;95562.94;5083421;28;20197;-78
2024/03/12 11:06:37;;;;;;;5.13;3.57;;;;;;;8.39;80.57;95570.28;5066369;28;20235;-78
2024/03/12 11:09:06;;;;;;;5.70;4.57;;;;;;;8.19;81.55;95561.63;5086157;28;20237;-78
2024/03/12 11:11:33;;;;;;;9.37;5.67;;;;;;;8.21;81.00;95564.91;5076697;28;20255;-77
2024/03/12 11:14:01;;;;;;;10.17;7.10;;;;;;;8.58;80.38;95575.50;5070309;28;20185;-78
2024/03/12 11:16:30;;;;;;;9.73;7.07;;;;;;;8.45;79.98;95574.94;5081003;28;20242;-78
2024/03/12 11:18:56;;;;;;;12.03;7.73;;;;;;;8.75;79.07;95576.63;5065056;28;20193;-78
2024/03/12 11:21:40;;;;;;;14.13;9.60;;;;;;;8.65;79.60;95571.41;5068757;28;20184;-77
2024/03/12 11:24:06;;;;;;;17.03;11.33;;;;;;;8.60;78.54;95578.78;5070885;28;20200;-78
2024/03/12 11:26:33;;;;;;;22.83;12.60;;;;;;;8.71;77.67;95576.06;5089257;28;20200;-78
2024/03/12 11:28:58;;;;;;;18.93;12.67;;;;;;;8.76;77.49;95567.88;5106673;28;20177;-78
2024/03/12 11:31:25;;;;;;;22.67;14.23;;;;;;;8.68;78.18;95571.16;5083593;28;20191;-77
2024/03/12 11:33:54;;;;;;;19.27;13.10;;;;;;;8.58;77.96;95578.09;5075546;28;20267;-78
2024/03/12 11:36:32;;;;;;;20.87;15.00;;;;;;;8.37;77.18;95577.38;5075335;28;20275;-78
2024/03/12 11:38:59;;;;;;;22.30;13.97;;;;;;;8.69;76.52;95572.78;5080795;28;20207;-78
2024/03/12 11:41:48;;;;;;;21.80;13.40;;;;;;;8.71;76.63;95570.88;5075133;28;20192;-77
2024/03/12 11:44:49;;;;;;;22.87;14.40;;;;;;;8.91;77.01;95576.06;5071503;28;20217;-77
2024/03/12 11:47:36;;;;;;;25.33;15.43;;;;;;;9.22;76.24;95572.38;5090994;28;20242;-77
2024/03/12 11:50:07;;;;;;;29.77;16.87;;;;;;;9.23;75.96;95581.75;5082461;28;20714;-78